In Rescue
 
Open Full Screen Window  High Contrast Mode
Wind Gusting 00 knots
03
November 20, 2019 12:57 AM CST
Weather Information
Wind Direction
  270 °
Wind Speed
  03 kt (3 mph)
Wind Gust
  00 kt (0 mph)
Altimeter
29.95 in
Visibility
10 SM
Temperature
01° C
34° F
Dewpoint
00° C
32° F
Humidity
93%
1hr Rain Fall
00.00 in.
24hr Rain Fall
00.00 in.
Sky Condition
Overcast @ 900 ft
IFR

METAR KEVM 200657Z AUTO 27003KT 10SM OVC009 01/00 A2995 RMK AO2 T00050004

FAA Disclaimer: The data displayed is for advisory purposes only and is not to be used for flight planning or operations.